Time;durP1;ratioP1;P1;durP2;ratioP2;P2;SDS_P1;SDS_P2;PMS_P1;PMS_P2;Temp;Humidity;BMP_temperature;BMP_pressure;BME280_temperature;BME280_humidity;BME280_pressure;Samples;Min_cycle;Max_cycle;Signal;HPM_P1;HPM_P2
2021/12/11 00:02:55;;;;;;;19.23;13.25;;;;;;;2.68;85.68;99462.53;4825385;29;20054;-67
2021/12/11 00:06:22;;;;;;;18.60;13.90;;;;;;;2.63;85.56;99472.19;4825800;29;20089;-68
2021/12/11 00:09:45;;;;;;;19.10;13.10;;;;;;;2.66;85.72;99474.66;4825618;29;20508;-67
2021/12/11 00:12:53;;;;;;;22.10;13.57;;;;;;;2.67;85.87;99476.34;4825280;29;20077;-68
2021/12/11 00:15:58;;;;;;;17.02;13.85;;;;;;;2.50;86.60;99477.78;4825321;29;20180;-68
2021/12/11 00:19:13;;;;;;;22.33;14.60;;;;;;;2.59;86.04;99489.53;4824839;29;20054;-67
2021/12/11 00:22:21;;;;;;;18.63;13.57;;;;;;;2.52;86.55;99495.78;4807417;29;20054;-67
2021/12/11 00:25:24;;;;;;;20.70;13.50;;;;;;;2.54;86.70;99501.75;4795894;29;20510;-67
2021/12/11 00:28:27;;;;;;;;;;;;;;;2.60;86.26;99490.38;4806753;29;20131;-67
2021/12/11 00:31:33;;;;;;;14.77;12.27;;;;;;;2.59;86.08;99502.44;4806955;29;19975;-68
2021/12/11 00:34:40;;;;;;;15.82;12.88;;;;;;;2.37;87.35;99514.41;4825257;29;20428;-68
2021/12/11 00:37:43;;;;;;;17.02;13.88;;;;;;;2.50;86.79;99526.81;4824755;29;20518;-67
2021/12/11 00:40:49;;;;;;;16.35;13.57;;;;;;;2.62;86.38;99529.88;4813978;29;20139;-67
2021/12/11 00:43:53;;;;;;;16.48;12.75;;;;;;;2.71;85.90;99545.00;4824616;29;20045;-67
2021/12/11 00:47:15;;;;;;;14.30;12.13;;;;;;;2.75;85.58;99556.94;4824178;29;20051;-67
2021/12/11 00:50:25;;;;;;;15.77;13.15;;;;;;;2.61;86.22;99564.31;4824792;29;20169;-67
2021/12/11 00:53:33;;;;;;;18.20;13.38;;;;;;;2.62;85.88;99571.19;4813396;29;20105;-68
2021/12/11 00:56:38;;;;;;;17.65;14.57;;;;;;;2.54;86.59;99582.59;4824714;29;20512;-68
2021/12/11 00:59:41;;;;;;;15.52;13.20;;;;;;;2.60;86.36;99588.44;4824655;29;20133;-68
2021/12/11 01:02:45;;;;;;;14.55;12.13;;;;;;;2.62;86.31;99591.81;4824067;29;20622;-67
2021/12/11 01:05:52;;;;;;;15.30;12.63;;;;;;;2.69;85.73;99598.44;4824629;29;20103;-67
2021/12/11 01:09:18;;;;;;;15.63;10.68;;;;;;;2.62;85.55;99602.97;4824519;29;20585;-67
2021/12/11 01:12:25;;;;;;;14.25;10.13;;;;;;;2.71;85.37;99613.00;4824319;29;20479;-68
2021/12/11 01:15:43;;;;;;;15.30;10.80;;;;;;;2.66;85.49;99621.78;4824441;29;20052;-67
2021/12/11 01:18:55;;;;;;;12.60;10.75;;;;;;;2.61;86.06;99627.09;4824330;29;20126;-68
2021/12/11 01:22:00;;;;;;;14.82;11.77;;;;;;;2.61;85.91;99632.25;4824418;29;20118;-68
2021/12/11 01:25:15;;;;;;;19.10;12.65;;;;;;;2.58;86.05;99641.84;4824301;29;20073;-68
2021/12/11 01:28:19;;;;;;;16.15;12.38;;;;;;;2.64;86.07;99644.22;4824175;29;20139;-67
2021/12/11 01:31:23;;;;;;;18.48;12.52;;;;;;;2.53;86.04;99650.59;4823785;29;20045;-68
2021/12/11 01:34:28;;;;;;;13.68;11.38;;;;;;;2.53;86.16;99660.06;4805928;29;20658;-67
2021/12/11 01:37:32;;;;;;;13.45;11.40;;;;;;;2.61;86.24;99667.53;4805791;29;20049;-67
2021/12/11 01:40:35;;;;;;;;;;;;;;;2.67;85.63;99682.81;4806026;29;20067;-68
2021/12/11 01:43:41;;;;;;;15.48;12.10;;;;;;;2.58;86.32;99683.13;4819011;29;19924;-67
2021/12/11 01:46:46;;;;;;;16.38;12.23;;;;;;;2.70;85.86;99695.63;4824363;29;20061;-68
2021/12/11 01:49:53;;;;;;;20.08;13.50;;;;;;;2.62;85.95;99705.38;4823520;29;20454;-68
2021/12/11 01:53:01;;;;;;;19.05;13.48;;;;;;;2.66;85.91;99709.53;4794438;29;20422;-67
2021/12/11 01:56:14;;;;;;;14.98;11.98;;;;;;;2.74;85.57;99717.84;4805346;29;20054;-68
2021/12/11 01:59:25;;;;;;;14.98;12.48;;;;;;;2.74;85.73;99725.59;4805655;29;20066;-67
2021/12/11 02:02:34;;;;;;;17.85;13.85;;;;;;;2.12;88.42;99737.03;4805370;29;20054;-67
2021/12/11 02:05:41;;;;;;;18.58;14.68;;;;;;;2.09;88.82;99747.44;4805516;29;20062;-67
2021/12/11 02:08:44;;;;;;;16.58;12.90;;;;;;;2.08;89.27;99754.31;4805347;29;20103;-68
2021/12/11 02:11:49;;;;;;;;;;;;;;;2.30;88.46;99744.22;4805725;29;20098;-67
2021/12/11 02:14:54;;;;;;;18.30;12.32;;;;;;;2.49;87.52;99761.69;4805267;29;19924;-67
2021/12/11 02:18:16;;;;;;;17.88;13.23;;;;;;;2.49;87.39;99759.97;4805074;29;20058;-67
2021/12/11 02:21:28;;;;;;;15.73;12.77;;;;;;;2.59;86.83;99772.59;4818436;29;20099;-67
2021/12/11 02:24:40;;;;;;;17.10;12.65;;;;;;;2.62;86.76;99772.50;4823384;29;20089;-67
2021/12/11 02:27:51;;;;;;;15.82;12.32;;;;;;;2.54;86.93;99786.44;4823341;29;20504;-68
2021/12/11 02:31:04;;;;;;;21.13;13.25;;;;;;;2.64;86.82;99788.75;4823411;29;20417;-67
2021/12/11 02:34:22;;;;;;;16.10;12.70;;;;;;;2.62;86.87;99798.28;4823285;29;20065;-67
2021/12/11 02:37:40;;;;;;;17.42;12.82;;;;;;;2.60;86.75;99800.91;4823160;29;20102;-67
2021/12/11 02:40:59;;;;;;;18.65;13.05;;;;;;;2.63;86.86;99807.72;4811819;29;20057;-67
2021/12/11 02:44:18;;;;;;;15.52;12.90;;;;;;;2.59;86.71;99808.72;4823126;29;20054;-67
2021/12/11 02:47:32;;;;;;;20.17;13.50;;;;;;;2.53;87.28;99820.91;4822955;29;20049;-67
2021/12/11 02:50:40;;;;;;;18.83;13.82;;;;;;;2.54;87.36;99827.75;4822081;29;20085;-67
2021/12/11 02:53:54;;;;;;;18.92;13.82;;;;;;;2.51;87.39;99838.16;4822784;29;20099;-67
2021/12/11 02:57:04;;;;;;;14.75;12.23;;;;;;;2.66;86.86;99823.09;4822932;29;20083;-68
2021/12/11 03:00:24;;;;;;;15.68;13.00;;;;;;;2.66;87.02;99839.44;4822894;29;20092;-68
2021/12/11 03:03:34;;;;;;;14.65;11.90;;;;;;;2.76;86.76;99843.41;4822995;29;20053;-67
2021/12/11 03:06:42;;;;;;;16.77;13.35;;;;;;;2.67;86.79;99840.28;4822870;29;20492;-67
2021/12/11 03:09:52;;;;;;;16.38;12.73;;;;;;;2.69;86.63;99846.25;4822706;29;20082;-67
2021/12/11 03:12:56;;;;;;;15.80;13.32;;;;;;;2.67;86.45;99853.19;4822748;29;20440;-67
2021/12/11 03:15:59;;;;;;;18.40;14.05;;;;;;;2.71;86.31;99859.94;4822835;29;20462;-68
2021/12/11 03:19:05;;;;;;;15.10;12.27;;;;;;;2.75;85.90;99875.31;4822361;29;20063;-68
2021/12/11 03:22:15;;;;;;;19.08;14.27;;;;;;;2.72;86.38;99880.56;4804326;29;20057;-67
2021/12/11 03:25:23;;;;;;;15.57;13.07;;;;;;;2.74;86.51;99881.38;4804513;29;20093;-67
2021/12/11 03:28:26;;;;;;;14.07;12.50;;;;;;;2.77;86.34;99882.97;4804509;29;20069;-68
2021/12/11 03:31:30;;;;;;;16.35;13.10;;;;;;;2.70;86.21;99884.91;4804422;29;20126;-68
2021/12/11 03:34:33;;;;;;;15.55;13.93;;;;;;;2.73;86.52;99895.16;4804473;29;20053;-68
2021/12/11 03:37:37;;;;;;;19.08;13.70;;;;;;;2.73;86.63;99905.47;4804179;29;20122;-68
2021/12/11 03:40:41;;;;;;;19.13;13.68;;;;;;;2.72;86.71;99918.44;4804429;29;20084;-68
2021/12/11 03:43:45;;;;;;;16.55;13.07;;;;;;;2.71;87.07;99924.47;4804495;29;20065;-67
2021/12/11 03:46:51;;;;;;;15.82;13.38;;;;;;;2.61;87.11;99935.97;4804165;29;20073;-67
2021/12/11 03:49:55;;;;;;;16.63;14.65;;;;;;;2.44;88.38;99944.19;4812890;29;20049;-68
2021/12/11 03:52:58;;;;;;;16.60;13.27;;;;;;;2.47;88.18;99944.09;4822305;29;20057;-67
2021/12/11 03:56:06;;;;;;;19.27;14.73;;;;;;;2.54;87.63;99943.88;4822590;29;20053;-67
2021/12/11 03:59:11;;;;;;;24.58;15.32;;;;;;;2.60;87.55;99952.34;4822444;29;20065;-67
2021/12/11 04:02:20;;;;;;;25.15;17.50;;;;;;;2.53;87.33;99955.09;4823302;29;20052;-68
2021/12/11 04:05:23;;;;;;;23.08;19.63;;;;;;;2.44;87.51;99965.69;4825626;29;20066;-67
2021/12/11 04:08:28;;;;;;;;;;;;;;;2.48;87.87;99962.09;4826018;29;20413;-68
2021/12/11 04:11:33;;;;;;;26.67;20.77;;;;;;;2.46;87.21;99968.22;4825313;29;19923;-68
2021/12/11 04:14:43;;;;;;;25.63;20.73;;;;;;;2.54;87.20;99974.84;4825419;29;20068;-68
2021/12/11 04:17:47;;;;;;;27.95;21.30;;;;;;;2.20;88.22;99976.66;4824981;29;20107;-67
2021/12/11 04:20:51;;;;;;;24.98;21.92;;;;;;;2.21;88.45;99978.38;4824890;29;20053;-68
2021/12/11 04:23:54;;;;;;;24.05;20.33;;;;;;;2.38;88.32;99986.47;4825161;29;20528;-67
2021/12/11 04:26:59;;;;;;;;;;;;;;;2.33;88.19;99991.78;4825706;29;20065;-68
2021/12/11 04:30:10;;;;;;;29.95;21.23;;;;;;;2.55;87.34;100009.25;4825180;29;20069;-67
2021/12/11 04:33:14;;;;;;;27.23;20.90;;;;;;;2.45;87.94;100013.81;4825275;29;20049;-68
2021/12/11 04:36:23;;;;;;;28.13;22.13;;;;;;;2.12;89.55;100014.72;4813461;29;20049;-67
2021/12/11 04:39:33;;;;;;;29.30;20.92;;;;;;;2.14;89.95;100023.25;4825127;29;20053;-68
2021/12/11 04:45:55;;;;;;;28.20;21.88;;;;;;;2.43;88.44;100025.91;4824759;29;20110;-67
2021/12/11 04:49:08;;;;;;;24.00;21.40;;;;;;;2.62;87.85;100030.59;4824287;29;20058;-67
2021/12/11 04:52:19;;;;;;;26.90;21.50;;;;;;;2.54;87.74;100039.38;4824690;29;20057;-67
2021/12/11 05:15:41;;;;;;;26.75;20.75;;;;;;;3.00;85.28;100076.84;4824371;29;20148;-67
2021/12/11 05:18:46;;;;;;;23.52;19.35;;;;;;;3.03;84.90;100079.34;4823613;29;20057;-67
2021/12/11 05:21:49;;;;;;;30.20;20.33;;;;;;;2.95;85.60;100091.59;4824269;29;20114;-67
2021/12/11 05:24:56;;;;;;;24.27;19.35;;;;;;;3.09;85.13;100090.38;4824329;29;20114;-67
2021/12/11 05:27:59;;;;;;;24.60;20.27;;;;;;;2.96;85.19;100098.44;4824008;29;20122;-67
2021/12/11 05:31:05;;;;;;;23.40;19.00;;;;;;;3.02;85.46;100098.28;4819083;29;20099;-67
2021/12/11 05:34:09;;;;;;;28.20;21.83;;;;;;;2.93;85.45;100114.03;4819905;29;20110;-67
2021/12/11 05:37:12;;;;;;;30.02;19.98;;;;;;;3.06;85.19;100118.88;4820070;29;20137;-67
2021/12/11 05:40:19;;;;;;;23.25;19.17;;;;;;;3.12;84.96;100118.69;4828119;29;20672;-67
2021/12/11 05:43:23;;;;;;;25.13;19.23;;;;;;;3.12;85.20;100129.03;4838040;29;20057;-67
2021/12/11 05:46:27;;;;;;;28.30;19.80;;;;;;;3.12;85.05;100123.84;4837210;29;20052;-67
2021/12/11 05:49:31;;;;;;;26.80;20.88;;;;;;;3.00;85.63;100136.25;4822566;29;20573;-67
2021/12/11 05:52:35;;;;;;;23.90;20.08;;;;;;;2.96;85.62;100139.78;4819562;29;20110;-67
2021/12/11 05:55:40;;;;;;;23.05;19.33;;;;;;;2.97;85.54;100141.50;4835928;29;20515;-67
2021/12/11 06:01:54;;;;;;;25.45;19.45;;;;;;;2.79;85.62;100165.22;4837315;29;20202;-67
2021/12/11 06:04:59;;;;;;;26.88;20.23;;;;;;;2.83;85.25;100177.16;4837559;29;20308;-67
2021/12/11 06:08:03;;;;;;;29.40;22.00;;;;;;;2.87;85.82;100185.66;4836117;29;20614;-67
2021/12/11 06:11:08;;;;;;;25.88;21.27;;;;;;;2.79;85.86;100191.88;4837080;29;20140;-67
2021/12/11 06:14:12;;;;;;;26.95;21.10;;;;;;;2.80;86.23;100197.88;4828554;29;20095;-67
2021/12/11 06:17:20;;;;;;;22.85;19.63;;;;;;;2.85;86.13;100206.38;4817546;29;20156;-67
2021/12/11 06:20:27;;;;;;;23.98;18.95;;;;;;;2.91;85.66;100216.53;4818777;29;20560;-71
2021/12/11 06:23:30;;;;;;;26.85;21.33;;;;;;;2.97;85.45;100216.38;4818347;29;20061;-67
2021/12/11 06:26:34;;;;;;;26.65;22.83;;;;;;;2.86;85.89;100220.13;4796935;29;20095;-67
2021/12/11 06:29:38;;;;;;;30.95;21.83;;;;;;;2.93;85.70;100237.16;4818999;29;20130;-67
2021/12/11 06:32:42;;;;;;;29.52;22.20;;;;;;;2.81;86.50;100238.31;4818801;29;20049;-67
2021/12/11 06:35:48;;;;;;;27.17;21.60;;;;;;;2.85;86.23;100245.09;4818218;29;20056;-67
2021/12/11 06:38:55;;;;;;;30.15;22.77;;;;;;;2.84;85.79;100248.59;4799583;29;20220;-67
2021/12/11 06:42:02;;;;;;;25.98;19.73;;;;;;;2.90;85.60;100253.56;4800083;29;20057;-67
2021/12/11 06:45:06;;;;;;;24.83;20.92;;;;;;;2.87;85.40;100264.00;4799972;29;20050;-68
2021/12/11 06:48:09;;;;;;;26.42;22.95;;;;;;;2.90;85.95;100274.22;4807115;29;20094;-67
2021/12/11 06:51:13;;;;;;;28.63;20.92;;;;;;;2.89;85.45;100288.03;4817840;29;20081;-67
2021/12/11 06:54:16;;;;;;;26.02;19.95;;;;;;;2.74;85.80;100298.72;4816122;29;20065;-67
2021/12/11 06:57:20;;;;;;;;;;;;;;;2.75;85.93;100305.59;4817982;29;20053;-67
2021/12/11 07:00:26;;;;;;;31.63;21.83;;;;;;;2.74;86.01;100309.94;4817653;29;20284;-67
2021/12/11 07:03:30;;;;;;;30.13;22.50;;;;;;;2.59;87.24;100325.75;4819267;29;20416;-67
2021/12/11 07:06:36;;;;;;;27.02;20.92;;;;;;;2.67;86.59;100318.69;4821944;29;20097;-67
2021/12/11 07:09:40;;;;;;;28.13;21.67;;;;;;;2.80;85.99;100329.56;4821909;29;20077;-67
2021/12/11 07:12:44;;;;;;;;;;;;;;;2.88;85.83;100339.72;4823074;29;20518;-67
2021/12/11 07:15:47;;;;;;;32.25;20.80;;;;;;;2.78;86.42;100339.94;4822412;29;19965;-67
2021/12/11 07:18:51;;;;;;;;;;;;;;;2.82;86.49;100352.78;4822939;29;20073;-67
2021/12/11 07:21:55;;;;;;;30.50;21.50;;;;;;;2.89;86.02;100350.00;4811366;29;19972;-67
2021/12/11 07:25:07;;;;;;;30.65;20.63;;;;;;;2.83;86.50;100357.06;4822552;29;20450;-68
2021/12/11 07:28:20;;;;;;;25.98;20.88;;;;;;;2.74;86.88;100366.72;4809476;29;20515;-67
2021/12/11 07:31:25;;;;;;;27.88;20.30;;;;;;;2.86;86.39;100380.22;4799518;29;20084;-68
2021/12/11 07:34:29;;;;;;;26.67;20.65;;;;;;;2.87;86.26;100382.78;4799727;29;20050;-67
2021/12/11 07:37:33;;;;;;;25.83;20.95;;;;;;;2.95;86.23;100390.34;4817166;29;20187;-67
2021/12/11 07:40:48;;;;;;;32.08;22.73;;;;;;;2.97;85.99;100397.19;4821961;29;20092;-68
2021/12/11 07:43:52;;;;;;;28.45;20.55;;;;;;;2.87;86.46;100403.44;4803820;29;20050;-67
2021/12/11 07:46:59;;;;;;;24.98;20.55;;;;;;;2.92;86.50;100401.59;4804703;29;20066;-67
2021/12/11 07:50:04;;;;;;;29.40;20.27;;;;;;;2.93;86.71;100410.19;4814326;29;20704;-67
2021/12/11 07:53:07;;;;;;;32.72;20.20;;;;;;;3.03;85.96;100419.41;4817402;29;20085;-67
2021/12/11 07:56:11;;;;;;;30.67;22.42;;;;;;;3.07;86.40;100425.38;4825962;29;20162;-67
2021/12/11 07:59:14;;;;;;;34.35;22.40;;;;;;;3.08;86.19;100427.94;4838830;29;20416;-67
2021/12/11 08:02:17;;;;;;;32.72;21.60;;;;;;;2.97;86.29;100441.09;4839278;29;20052;-68
2021/12/11 08:05:26;;;;;;;27.17;20.90;;;;;;;2.95;86.57;100444.59;4839557;29;20219;-68
2021/12/11 08:08:30;;;;;;;25.90;19.58;;;;;;;2.91;86.91;100451.56;4806949;29;20115;-68
2021/12/11 08:11:34;;;;;;;22.88;19.98;;;;;;;3.03;86.79;100446.13;4806952;29;20309;-68
2021/12/11 08:14:37;;;;;;;23.27;19.75;;;;;;;3.13;86.27;100448.50;4807106;29;20057;-68
2021/12/11 08:17:41;;;;;;;30.38;21.25;;;;;;;3.12;86.46;100455.38;4813886;29;20463;-68
2021/12/11 08:20:45;;;;;;;26.20;21.08;;;;;;;3.01;86.76;100458.22;4825193;29;20423;-68
2021/12/11 08:23:53;;;;;;;;;;;;;;;3.11;86.29;100469.19;4825530;29;20053;-68
2021/12/11 08:27:01;;;;;;;27.15;20.80;;;;;;;3.13;86.41;100464.84;4824652;29;19939;-68
2021/12/11 08:30:07;;;;;;;29.42;19.98;;;;;;;3.10;86.59;100477.00;4824213;29;20094;-68
2021/12/11 08:33:11;;;;;;;25.98;19.23;;;;;;;3.02;86.95;100490.91;4824665;29;20049;-68
2021/12/11 08:36:14;;;;;;;26.98;20.08;;;;;;;3.06;87.02;100496.00;4823958;29;20481;-68
2021/12/11 08:39:19;;;;;;;24.95;20.40;;;;;;;3.11;87.12;100504.50;4820258;29;20053;-68
2021/12/11 08:42:25;;;;;;;33.75;22.55;;;;;;;3.03;87.05;100515.88;4824329;29;20053;-68
2021/12/11 08:45:44;;;;;;;31.95;22.88;;;;;;;3.12;87.02;100521.72;4813171;29;20053;-68
2021/12/11 08:48:49;;;;;;;24.70;20.90;;;;;;;3.16;86.91;100529.38;4812779;29;20149;-68
2021/12/11 08:51:59;;;;;;;30.08;24.17;;;;;;;3.30;86.23;100534.22;4823144;29;20523;-68
2021/12/11 08:55:05;;;;;;;32.38;24.73;;;;;;;3.27;86.17;100542.03;4819875;29;20144;-68
2021/12/11 08:58:11;;;;;;;31.90;24.25;;;;;;;3.37;85.93;100546.13;4801570;29;20108;-68
2021/12/11 09:01:30;;;;;;;30.83;23.45;;;;;;;3.34;85.76;100555.69;4802010;29;20099;-68
2021/12/11 09:04:43;;;;;;;31.80;24.35;;;;;;;3.42;85.37;100566.72;4801664;29;20093;-68
2021/12/11 09:07:56;;;;;;;31.27;23.50;;;;;;;3.39;85.46;100566.78;4809605;29;20383;-68
2021/12/11 09:15:35;;;;;;;32.08;22.15;;;;;;;3.28;86.70;100584.25;4821992;29;20026;-68
2021/12/11 09:19:05;;;;;;;28.33;21.27;;;;;;;3.32;86.66;100591.03;4838293;29;20204;-68
2021/12/11 09:22:14;;;;;;;31.63;23.48;;;;;;;3.41;85.95;100594.28;4837511;29;20048;-68
2021/12/11 09:25:30;;;;;;;28.33;22.42;;;;;;;3.38;86.55;100596.06;4801082;29;20057;-68
2021/12/11 09:28:46;;;;;;;27.52;21.70;;;;;;;3.39;86.59;100606.41;4818120;29;20069;-66
2021/12/11 09:32:26;;;;;;;28.77;21.42;;;;;;;3.41;86.98;100617.53;4819601;29;20568;-66
2021/12/11 09:35:33;;;;;;;30.02;21.80;;;;;;;3.39;87.45;100614.16;4821918;29;20087;-66
2021/12/11 09:38:41;;;;;;;34.65;23.30;;;;;;;3.44;86.81;100624.38;4837644;29;20084;-66
2021/12/11 09:41:44;;;;;;;34.67;24.63;;;;;;;3.50;85.98;100627.69;4837165;29;20156;-66
2021/12/11 09:44:55;;;;;;;34.22;25.23;;;;;;;3.56;85.51;100629.28;4836348;29;20064;-67
2021/12/11 09:48:06;;;;;;;36.65;28.05;;;;;;;3.55;86.58;100631.94;4838721;29;20049;-67
2021/12/11 09:51:13;;;;;;;35.95;26.10;;;;;;;3.60;85.92;100628.34;4841152;29;20113;-67
2021/12/11 09:54:23;;;;;;;40.75;26.67;;;;;;;3.74;85.63;100633.22;4840018;29;20485;-67
2021/12/11 09:57:30;;;;;;;36.35;24.73;;;;;;;3.79;84.58;100633.94;4841647;29;20061;-67
2021/12/11 10:01:11;;;;;;;38.47;27.88;;;;;;;3.70;84.71;100640.19;4839875;29;20164;-67
2021/12/11 10:04:18;;;;;;;40.88;29.40;;;;;;;3.59;81.55;100649.06;4805245;29;20596;-67
2021/12/11 10:07:28;;;;;;;43.60;31.58;;;;;;;3.61;81.90;100639.56;4804768;29;20049;-67
2021/12/11 10:10:32;;;;;;;39.38;29.10;;;;;;;3.79;81.19;100633.09;4805425;29;20066;-67
2021/12/11 10:13:59;;;;;;;41.92;31.67;;;;;;;3.92;81.20;100645.75;4805251;29;20045;-67
2021/12/11 10:17:09;;;;;;;35.47;24.45;;;;;;;3.81;78.88;100650.28;4805141;29;20069;-67
2021/12/11 10:20:21;;;;;;;32.75;26.70;;;;;;;3.59;79.87;100646.47;4805389;29;20582;-67
2021/12/11 10:23:30;;;;;;;39.45;28.88;;;;;;;3.57;80.29;100648.22;4804889;29;20098;-67
2021/12/11 10:26:35;;;;;;;33.03;24.23;;;;;;;3.72;79.39;100650.50;4804827;29;20093;-67
2021/12/11 10:29:41;;;;;;;39.53;25.85;;;;;;;3.49;79.65;100667.34;4804762;29;20520;-67
2021/12/11 10:32:46;;;;;;;28.63;21.75;;;;;;;3.66;78.75;100663.56;4804773;29;20130;-67
2021/12/11 10:35:52;;;;;;;34.25;25.60;;;;;;;3.66;78.58;100663.56;4804456;29;20115;-67
2021/12/11 10:38:57;;;;;;;43.58;32.42;;;;;;;3.72;78.83;100669.44;4804450;29;20104;-67
2021/12/11 10:42:03;;;;;;;31.63;23.50;;;;;;;3.84;78.83;100668.34;4804333;29;20487;-67
2021/12/11 10:45:08;;;;;;;32.75;24.80;;;;;;;4.07;78.73;100669.53;4804606;29;20429;-67
2021/12/11 10:48:15;;;;;;;65.15;37.45;;;;;;;4.19;77.79;100672.69;4804696;29;20053;-67
2021/12/11 10:51:32;;;;;;;36.35;26.00;;;;;;;4.20;77.33;100683.91;4804325;29;20163;-67
2021/12/11 10:54:38;;;;;;;34.22;25.33;;;;;;;4.07;77.34;100690.25;4804693;29;20080;-67
2021/12/11 10:57:41;;;;;;;31.90;22.95;;;;;;;4.14;77.27;100691.81;4804247;29;20146;-67
2021/12/11 11:00:59;;;;;;;33.65;24.95;;;;;;;3.65;78.62;100692.91;4810546;29;20437;-67
2021/12/11 11:04:08;;;;;;;31.73;24.23;;;;;;;3.79;78.68;100690.84;4822908;29;20052;-67
2021/12/11 11:07:11;;;;;;;42.45;33.92;;;;;;;3.86;77.97;100689.84;4821344;29;20069;-67
2021/12/11 11:10:28;;;;;;;49.30;37.95;;;;;;;3.47;79.94;100694.97;4821335;29;20069;-67
2021/12/11 11:13:32;;;;;;;44.80;35.13;;;;;;;3.74;79.75;100703.03;4825604;29;20098;-67
2021/12/11 11:16:38;;;;;;;32.17;22.60;;;;;;;3.45;80.50;100693.31;4814349;29;20050;-67
2021/12/11 11:19:42;;;;;;;32.72;22.70;;;;;;;3.66;80.37;100697.19;4825693;29;20524;-67
2021/12/11 11:22:46;;;;;;;30.92;21.77;;;;;;;3.31;81.74;100701.31;4825930;29;20057;-67
2021/12/11 11:25:56;;;;;;;25.48;18.23;;;;;;;3.52;81.75;100701.78;4825507;29;20060;-67
2021/12/11 11:29:01;;;;;;;34.78;25.23;;;;;;;3.59;81.65;100704.22;4826104;29;20478;-67
2021/12/11 11:32:10;;;;;;;26.65;19.88;;;;;;;3.51;81.73;100700.94;4821903;29;20084;-67
2021/12/11 11:35:19;;;;;;;26.85;19.52;;;;;;;3.86;80.85;100701.91;4836091;29;20098;-67
2021/12/11 11:38:27;;;;;;;23.67;17.67;;;;;;;3.91;79.10;100700.94;4840415;29;20630;-67
2021/12/11 11:41:46;;;;;;;22.77;15.63;;;;;;;3.78;79.24;100704.69;4840380;29;20631;-67
2021/12/11 11:44:50;;;;;;;22.70;17.85;;;;;;;3.57;80.94;100710.28;4833693;29;20069;-67
2021/12/11 11:47:55;;;;;;;23.17;16.00;;;;;;;3.44;79.54;100713.13;4821935;29;20053;-67
2021/12/11 11:51:02;;;;;;;18.95;13.32;;;;;;;3.49;79.43;100713.88;4802972;29;20481;-67
2021/12/11 11:54:10;;;;;;;22.88;14.52;;;;;;;3.58;78.64;100714.59;4810393;24;20385;-68
2021/12/11 11:57:19;;;;;;;29.15;21.27;;;;;;;3.77;79.04;100718.50;4821583;24;20123;-68
2021/12/11 12:00:33;;;;;;;22.23;16.83;;;;;;;3.56;79.93;100724.97;4844834;24;20064;-68
2021/12/11 12:03:37;;;;;;;21.23;17.15;;;;;;;3.47;80.29;100722.56;4823449;29;20468;-68
2021/12/11 12:06:40;;;;;;;25.30;17.00;;;;;;;3.66;80.88;100733.38;4841104;29;20068;-68
2021/12/11 12:09:50;;;;;;;24.23;16.58;;;;;;;3.73;79.75;100737.53;4843833;29;20404;-68
2021/12/11 12:12:54;;;;;;;18.98;14.23;;;;;;;3.81;79.86;100733.06;4844254;29;20106;-68
2021/12/11 12:16:02;;;;;;;25.42;16.90;;;;;;;3.89;80.34;100731.19;4844063;29;20069;-68
2021/12/11 12:19:06;;;;;;;19.45;14.25;;;;;;;4.12;79.48;100733.25;4842644;29;20149;-68
2021/12/11 12:22:13;;;;;;;20.25;14.32;;;;;;;3.84;79.14;100735.59;4843616;29;20068;-68
2021/12/11 12:25:16;;;;;;;21.30;14.43;;;;;;;3.90;79.34;100743.22;4843925;29;20483;-68
2021/12/11 12:28:20;;;;;;;;;;;;;;;3.84;80.28;100742.50;4844622;29;20078;-68
2021/12/11 12:31:32;;;;;;;22.37;16.53;;;;;;;3.84;80.60;100740.75;4832490;29;19924;-68
2021/12/11 12:34:35;;;;;;;21.23;14.02;;;;;;;3.77;79.83;100749.53;4843787;29;20281;-68
2021/12/11 12:37:39;;;;;;;24.55;17.00;;;;;;;3.87;80.22;100751.03;4843483;29;20053;-68
2021/12/11 12:41:00;;;;;;;18.90;15.02;;;;;;;3.83;80.58;100748.53;4844193;29;20057;-68
2021/12/11 12:44:29;;;;;;;23.45;15.05;;;;;;;3.89;80.80;100762.22;4843026;29;20057;-68
2021/12/11 12:47:38;;;;;;;22.75;17.88;;;;;;;3.67;81.03;100754.06;4837532;29;20232;-68
2021/12/11 12:50:48;;;;;;;32.38;23.38;;;;;;;3.88;81.15;100759.66;4824572;29;20057;-68
2021/12/11 12:53:52;;;;;;;22.50;16.77;;;;;;;3.91;80.59;100760.44;4824457;29;20419;-68
2021/12/11 12:57:08;;;;;;;21.67;15.35;;;;;;;3.90;80.97;100761.31;4824552;29;20089;-68
2021/12/11 13:00:36;;;;;;;19.13;15.13;;;;;;;3.97;80.91;100767.22;4824145;29;20061;-68
2021/12/11 13:03:41;;;;;;;19.33;13.95;;;;;;;4.03;80.42;100766.25;4823314;29;20545;-68
2021/12/11 13:06:51;;;;;;;21.52;14.95;;;;;;;3.91;80.42;100772.53;4824409;29;20057;-68
2021/12/11 13:09:58;;;;;;;21.17;15.65;;;;;;;3.87;81.33;100771.75;4824327;29;20412;-68
2021/12/11 13:13:09;;;;;;;21.73;16.60;;;;;;;3.97;80.53;100786.19;4824326;29;20107;-68
2021/12/11 13:16:19;;;;;;;20.23;16.20;;;;;;;3.80;81.89;100785.69;4824087;29;20061;-68
2021/12/11 13:19:34;;;;;;;22.00;15.52;;;;;;;3.78;81.90;100789.19;4824036;29;20053;-68
2021/12/11 13:22:40;;;;;;;21.20;16.38;;;;;;;3.86;81.97;100790.75;4824286;29;20052;-68
2021/12/11 13:25:50;;;;;;;20.50;15.98;;;;;;;3.95;81.68;100789.69;4824226;29;20052;-68
2021/12/11 13:28:58;;;;;;;20.65;15.60;;;;;;;4.02;81.64;100795.56;4819681;29;20099;-68
2021/12/11 13:32:06;;;;;;;22.23;14.90;;;;;;;4.03;81.97;100808.50;4818604;29;20053;-67
2021/12/11 13:35:16;;;;;;;27.15;20.77;;;;;;;3.95;81.87;100792.25;4832900;29;20049;-67
2021/12/11 13:38:21;;;;;;;28.20;19.98;;;;;;;4.04;81.95;100794.66;4837387;29;20045;-68
2021/12/11 13:41:31;;;;;;;31.45;20.85;;;;;;;3.96;81.66;100800.00;4836312;29;20072;-69
2021/12/11 13:44:39;;;;;;;27.55;19.77;;;;;;;4.08;81.58;100805.78;4836742;29;20074;-68
2021/12/11 13:47:44;;;;;;;25.38;19.17;;;;;;;4.18;81.93;100812.50;4836793;29;20072;-67
2021/12/11 13:50:58;;;;;;;24.35;16.95;;;;;;;4.30;81.92;100826.91;4837267;29;20444;-68
2021/12/11 13:54:04;;;;;;;34.35;22.25;;;;;;;4.24;81.44;100834.78;4836414;29;20421;-68
2021/12/11 13:57:14;;;;;;;23.98;17.50;;;;;;;4.30;80.84;100838.09;4837198;29;20103;-68
2021/12/11 14:00:24;;;;;;;21.88;16.40;;;;;;;4.31;81.50;100845.00;4838577;29;20057;-68
2021/12/11 14:03:29;;;;;;;27.15;19.13;;;;;;;4.35;81.49;100851.81;4819166;29;20126;-69
2021/12/11 14:06:33;;;;;;;27.00;18.73;;;;;;;4.33;82.18;100852.72;4818787;29;20049;-68
2021/12/11 14:09:57;;;;;;;22.90;16.45;;;;;;;4.32;81.50;100854.47;4820179;29;20103;-68
2021/12/11 14:13:04;;;;;;;18.48;13.77;;;;;;;4.34;81.61;100851.81;4818186;29;20089;-68
2021/12/11 14:16:10;;;;;;;19.10;15.10;;;;;;;4.13;82.33;100861.75;4818990;29;20518;-68
2021/12/11 14:19:14;;;;;;;18.27;14.65;;;;;;;4.04;82.40;100871.44;4818780;29;20061;-68
2021/12/11 14:22:20;;;;;;;18.38;13.63;;;;;;;4.17;82.65;100862.53;4819238;29;20102;-68
2021/12/11 14:25:32;;;;;;;17.63;13.38;;;;;;;4.13;82.80;100868.69;4816967;29;20049;-68
2021/12/11 14:28:35;;;;;;;22.02;13.50;;;;;;;4.16;83.64;100876.38;4818228;29;20105;-67
2021/12/11 14:31:41;;;;;;;26.33;15.70;;;;;;;4.17;84.23;100873.75;4819538;29;20052;-68
2021/12/11 14:34:45;;;;;;;20.65;14.93;;;;;;;4.18;84.21;100884.97;4819458;29;20044;-68
2021/12/11 14:37:49;;;;;;;20.08;13.85;;;;;;;4.20;84.21;100893.53;4819160;29;20114;-69
2021/12/11 14:40:55;;;;;;;22.13;12.95;;;;;;;4.16;84.81;100902.25;4826854;29;21109;-68
2021/12/11 14:44:02;;;;;;;17.05;12.70;;;;;;;4.20;85.15;100904.75;4836545;29;20041;-69
2021/12/11 14:47:09;;;;;;;18.75;12.25;;;;;;;4.35;84.54;100908.78;4836131;29;20052;-69
2021/12/11 14:50:14;;;;;;;18.52;13.52;;;;;;;4.45;84.75;100917.19;4836609;29;20053;-68
2021/12/11 14:53:22;;;;;;;21.00;13.63;;;;;;;4.58;84.84;100918.63;4839182;29;20469;-68
2021/12/11 14:56:35;;;;;;;18.58;13.75;;;;;;;4.48;85.09;100921.47;4831142;29;20424;-68
2021/12/11 14:59:44;;;;;;;24.00;13.43;;;;;;;4.57;85.21;100927.31;4821075;29;20076;-68
2021/12/11 15:02:50;;;;;;;19.90;13.57;;;;;;;4.55;85.68;100931.66;4822930;29;20115;-68